Time;durP1;ratioP1;P1;durP2;ratioP2;P2;SDS_P1;SDS_P2;PMS_P1;PMS_P2;Temp;Humidity;BMP_temperature;BMP_pressure;BME280_temperature;BME280_humidity;BME280_pressure;Samples;Min_cycle;Max_cycle;Signal;HPM_P1;HPM_P2
2021/07/20 00:01:45;;;;;;;13.32;5.65;;;;;;;;;;5026785;28;20086;-53
2021/07/20 00:04:12;;;;;;;12.57;5.55;;;;;;;;;;5040363;28;20044;-53
2021/07/20 00:06:40;;;;;;;14.35;5.68;;;;;;;;;;5035982;28;20127;-55
2021/07/20 00:09:08;;;;;;;11.45;5.13;;;;;;;;;;5023200;28;20041;-56
2021/07/20 00:11:34;;;;;;;14.25;5.30;;;;;;;;;;5020343;28;20038;-54
2021/07/20 00:14:01;;;;;;;12.48;5.97;;;;;;;;;;5042216;28;20072;-56
2021/07/20 00:16:28;;;;;;;15.68;5.50;;;;;;;;;;5043822;28;20096;-55
2021/07/20 00:18:56;;;;;;;13.30;5.95;;;;;;;;;;5022849;28;20050;-53
2021/07/20 00:21:23;;;;;;;13.27;5.38;;;;;;;;;;5025174;28;20042;-55
2021/07/20 00:23:51;;;;;;;16.52;5.65;;;;;;;;;;5037982;28;20044;-55
2021/07/20 00:26:18;;;;;;;13.85;5.85;;;;;;;;;;5047247;28;20046;-55
2021/07/20 00:28:47;;;;;;;19.88;6.03;;;;;;;;;;5030208;28;20073;-53
2021/07/20 00:31:13;;;;;;;15.73;5.93;;;;;;;;;;5042237;28;20041;-54
2021/07/20 00:33:40;;;;;;;17.50;5.90;;;;;;;;;;5041947;28;20052;-55
2021/07/20 00:36:07;;;;;;;15.02;5.88;;;;;;;;;;5047003;28;20037;-54
2021/07/20 00:38:34;;;;;;;13.98;5.93;;;;;;;;;;5017536;28;20037;-51
2021/07/20 00:41:02;;;;;;;14.98;6.28;;;;;;;;;;5009517;28;20033;-54
2021/07/20 00:43:28;;;;;;;13.48;5.80;;;;;;;;;;5011907;28;20062;-55
2021/07/20 00:45:55;;;;;;;17.95;6.05;;;;;;;;;;5042472;28;20037;-53
2021/07/20 00:48:21;;;;;;;17.75;6.28;;;;;;;;;;5043077;28;20093;-54
2021/07/20 00:50:48;;;;;;;14.15;5.93;;;;;;;;;;5047190;28;20040;-54
2021/07/20 00:53:15;;;;;;;12.63;5.43;;;;;;;;;;5042412;28;20038;-55
2021/07/20 00:55:42;;;;;;;15.40;5.90;;;;;;;;;;5046449;28;20097;-55
2021/07/20 00:58:18;;;;;;;17.27;5.90;;;;;;;;;;5045749;28;20043;-54
2021/07/20 01:00:47;;;;;;;14.23;5.53;;;;;;;;;;5046032;28;20033;-55
2021/07/20 01:03:13;;;;;;;14.68;6.13;;;;;;;;;;5045863;28;20021;-52
2021/07/20 01:05:40;;;;;;;18.23;6.38;;;;;;;;;;5025675;28;20062;-51
2021/07/20 01:08:07;;;;;;;18.25;6.30;;;;;;;;;;5015257;28;20038;-54
2021/07/20 01:10:35;;;;;;;16.77;6.67;;;;;;;;;;5018102;28;20038;-55
2021/07/20 01:13:02;;;;;;;16.13;6.63;;;;;;;;;;5026159;28;20140;-53
2021/07/20 01:15:31;;;;;;;16.50;6.15;;;;;;;;;;5037609;28;20045;-56
2021/07/20 01:17:57;;;;;;;;;;;;;;;;;;5027365;28;20127;-55
2021/07/20 01:20:25;;;;;;;15.38;5.90;;;;;;;;;;5032088;28;19998;-54
2021/07/20 01:22:53;;;;;;;12.35;5.95;;;;;;;;;;5046268;28;20029;-54
2021/07/20 01:25:21;;;;;;;17.53;6.93;;;;;;;;;;5029611;28;20061;-54
2021/07/20 01:27:54;;;;;;;16.25;6.38;;;;;;;;;;5042761;28;20048;-52
2021/07/20 01:30:21;;;;;;;17.13;6.90;;;;;;;;;;5036581;28;20037;-50
2021/07/20 01:32:48;;;;;;;15.85;6.22;;;;;;;;;;5041577;28;20045;-54
2021/07/20 01:35:15;;;;;;;14.52;6.22;;;;;;;;;;5042811;28;20025;-55
2021/07/20 01:37:56;;;;;;;15.52;5.80;;;;;;;;;;5029018;28;20033;-52
2021/07/20 01:40:24;;;;;;;14.52;6.32;;;;;;;;;;5038521;28;20041;-55
2021/07/20 01:42:51;;;;;;;17.52;6.78;;;;;;;;;;5013240;28;20048;-53
2021/07/20 01:45:19;;;;;;;19.63;6.45;;;;;;;;;;5040880;28;20045;-56
2021/07/20 01:47:47;;;;;;;15.20;5.90;;;;;;;;;;5027497;28;20045;-49
2021/07/20 01:50:15;;;;;;;14.23;5.90;;;;;;;;;;5039613;28;20048;-52
2021/07/20 01:52:42;;;;;;;17.80;5.82;;;;;;;;;;5009155;28;20045;-56
2021/07/20 01:55:09;;;;;;;18.23;6.30;;;;;;;;;;5025554;28;20105;-56
2021/07/20 01:57:51;;;;;;;17.25;6.28;;;;;;;;;;5024498;28;20030;-55
2021/07/20 02:00:18;;;;;;;20.05;6.80;;;;;;;;;;5040378;28;20036;-55
2021/07/20 02:02:55;;;;;;;17.92;6.70;;;;;;;;;;5040552;28;20052;-55
2021/07/20 02:08:25;;;;;;;16.90;6.65;;;;;;;;;;5005766;28;20041;-54
2021/07/20 02:10:53;;;;;;;16.95;5.75;;;;;;;;;;5035019;28;20120;-54
2021/07/20 02:13:22;;;;;;;18.88;7.38;;;;;;;;;;5024564;28;20038;-56
2021/07/20 02:15:49;;;;;;;16.98;6.75;;;;;;;;;;5009420;28;20042;-53
2021/07/20 02:18:20;;;;;;;17.80;6.82;;;;;;;;;;5022470;28;20041;-55
2021/07/20 02:20:47;;;;;;;16.50;7.10;;;;;;;;;;5006665;28;20065;-55
2021/07/20 02:23:14;;;;;;;18.98;6.90;;;;;;;;;;5033045;28;20033;-53
2021/07/20 02:25:41;;;;;;;15.25;6.50;;;;;;;;;;5041874;28;20041;-53
2021/07/20 02:28:19;;;;;;;16.25;6.80;;;;;;;;;;5006611;28;20100;-55
2021/07/20 02:30:48;;;;;;;21.55;6.63;;;;;;;;;;5007975;28;20097;-56
2021/07/20 02:33:15;;;;;;;18.85;7.07;;;;;;;;;;5021714;28;20122;-54
2021/07/20 02:35:41;;;;;;;18.63;6.82;;;;;;;;;;5008987;28;20034;-52
2021/07/20 02:38:08;;;;;;;19.25;7.13;;;;;;;;;;5021817;28;20041;-54
2021/07/20 02:40:35;;;;;;;17.40;6.88;;;;;;;;;;5028571;28;20057;-59
2021/07/20 02:43:02;;;;;;;18.48;6.60;;;;;;;;;;5022635;28;20171;-55
2021/07/20 02:45:30;;;;;;;16.27;6.18;;;;;;;;;;5025417;28;20045;-54
2021/07/20 02:48:08;;;;;;;16.00;6.77;;;;;;;;;;5025324;28;20048;-55
2021/07/20 02:50:36;;;;;;;19.50;6.80;;;;;;;;;;5028149;28;20271;-51
2021/07/20 02:53:03;;;;;;;18.63;7.25;;;;;;;;;;5039536;28;20127;-54
2021/07/20 02:55:29;;;;;;;17.10;6.43;;;;;;;;;;5023635;28;20057;-52
2021/07/20 02:57:58;;;;;;;20.13;7.13;;;;;;;;;;5039127;28;20045;-56
2021/07/20 03:00:24;;;;;;;16.98;7.13;;;;;;;;;;5026988;28;20037;-55
2021/07/20 03:02:51;;;;;;;15.18;6.97;;;;;;;;;;5044933;28;20060;-56
2021/07/20 03:05:18;;;;;;;18.13;6.38;;;;;;;;;;5039921;28;20106;-54
2021/07/20 03:07:49;;;;;;;17.98;6.13;;;;;;;;;;5026105;28;20111;-55
2021/07/20 03:10:16;;;;;;;17.83;6.65;;;;;;;;;;5024335;28;20138;-54
2021/07/20 03:12:45;;;;;;;20.55;6.95;;;;;;;;;;5025720;28;20037;-56
2021/07/20 03:15:13;;;;;;;17.25;6.93;;;;;;;;;;5035762;28;20053;-53
2021/07/20 03:17:39;;;;;;;15.40;6.40;;;;;;;;;;5024588;28;20045;-55
2021/07/20 03:20:07;;;;;;;18.00;6.40;;;;;;;;;;5014337;28;20036;-55
2021/07/20 03:22:34;;;;;;;18.20;6.88;;;;;;;;;;5042830;28;20048;-55
2021/07/20 03:25:02;;;;;;;17.98;6.43;;;;;;;;;;5039743;28;20044;-56
2021/07/20 03:27:31;;;;;;;;;;;;;;;;;;5040146;28;20037;-56
2021/07/20 03:29:58;;;;;;;17.27;6.43;;;;;;;;;;5010492;28;19954;-53
2021/07/20 03:32:26;;;;;;;14.00;5.90;;;;;;;;;;5045524;28;20017;-54
2021/07/20 03:34:53;;;;;;;18.25;7.00;;;;;;;;;;5037527;28;20030;-54
2021/07/20 03:37:21;;;;;;;17.40;7.07;;;;;;;;;;5025473;28;20033;-54
2021/07/20 03:39:47;;;;;;;;;;;;;;;;;;5025315;28;20038;-54
2021/07/20 03:42:16;;;;;;;16.77;5.95;;;;;;;;;;5043175;28;20002;-52
2021/07/20 03:44:42;;;;;;;;;;;;;;;;;;5022994;28;20054;-54
2021/07/20 03:47:14;;;;;;;17.58;6.65;;;;;;;;;;5022263;28;19928;-51
2021/07/20 03:49:42;;;;;;;18.00;6.65;;;;;;;;;;5041074;28;20030;-54
2021/07/20 03:52:08;;;;;;;18.58;7.00;;;;;;;;;;5040918;28;20048;-55
2021/07/20 03:54:35;;;;;;;18.02;6.43;;;;;;;;;;5043809;28;20033;-53
2021/07/20 03:57:21;;;;;;;15.90;6.57;;;;;;;;;;5024122;28;20041;-54
2021/07/20 03:59:49;;;;;;;19.98;7.22;;;;;;;;;;5042319;28;20041;-56
2021/07/20 04:02:16;;;;;;;20.60;7.15;;;;;;;;;;5034599;28;20045;-53
2021/07/20 04:04:45;;;;;;;17.63;6.10;;;;;;;;;;5003247;28;20034;-54
2021/07/20 04:07:13;;;;;;;16.05;6.75;;;;;;;;;;5013718;28;20052;-52
2021/07/20 04:09:39;;;;;;;;;;;;;;;;;;5036137;28;20046;-55
2021/07/20 04:12:07;;;;;;;13.23;5.63;;;;;;;;;;5010972;28;19929;-52
2021/07/20 04:14:34;;;;;;;17.25;6.13;;;;;;;;;;5045337;28;20038;-55
2021/07/20 04:17:03;;;;;;;14.75;6.20;;;;;;;;;;5031180;28;20042;-54
2021/07/20 04:19:30;;;;;;;17.17;6.18;;;;;;;;;;5003928;28;20089;-54
2021/07/20 04:21:57;;;;;;;16.08;6.80;;;;;;;;;;5005105;28;20022;-54
2021/07/20 04:24:25;;;;;;;17.30;6.63;;;;;;;;;;5024338;28;20111;-53
2021/07/20 04:26:54;;;;;;;16.42;6.68;;;;;;;;;;5019678;28;20733;-51
2021/07/20 04:29:20;;;;;;;16.48;6.57;;;;;;;;;;5040618;28;20029;-56
2021/07/20 04:31:52;;;;;;;18.58;7.35;;;;;;;;;;5037226;28;20038;-55
2021/07/20 04:34:18;;;;;;;16.50;6.60;;;;;;;;;;5003431;28;20035;-55
2021/07/20 04:36:45;;;;;;;20.17;7.15;;;;;;;;;;5004189;28;20049;-56
2021/07/20 04:39:13;;;;;;;17.73;6.53;;;;;;;;;;5034426;28;20049;-53
2021/07/20 04:41:40;;;;;;;18.50;6.55;;;;;;;;;;5040250;28;20045;-54
2021/07/20 04:44:06;;;;;;;21.55;6.68;;;;;;;;;;5019224;28;20042;-56
2021/07/20 04:46:33;;;;;;;23.67;6.82;;;;;;;;;;5001815;28;20114;-53
2021/07/20 04:49:03;;;;;;;15.45;6.45;;;;;;;;;;5017349;28;20030;-55
2021/07/20 04:51:31;;;;;;;20.85;6.25;;;;;;;;;;5002179;28;20034;-54
2021/07/20 04:53:58;;;;;;;20.00;6.03;;;;;;;;;;5013057;28;20059;-52
2021/07/20 04:56:25;;;;;;;22.73;6.43;;;;;;;;;;5039263;28;20053;-53
2021/07/20 04:58:52;;;;;;;17.55;6.22;;;;;;;;;;5028524;28;20038;-53
2021/07/20 05:01:18;;;;;;;17.13;6.53;;;;;;;;;;5022536;28;20034;-55
2021/07/20 05:03:45;;;;;;;15.95;5.97;;;;;;;;;;5001737;28;20034;-55
2021/07/20 05:06:14;;;;;;;18.45;6.03;;;;;;;;;;5023122;28;20030;-55
2021/07/20 05:08:43;;;;;;;16.52;6.53;;;;;;;;;;5019491;28;20038;-56
2021/07/20 05:11:10;;;;;;;18.27;6.20;;;;;;;;;;5021556;28;20038;-55
2021/07/20 05:13:37;;;;;;;17.88;6.90;;;;;;;;;;5004224;28;20049;-50
2021/07/20 05:16:06;;;;;;;12.40;5.00;;;;;;;;;;5022690;28;20053;-53
2021/07/20 05:18:36;;;;;;;18.33;6.20;;;;;;;;;;5020144;28;20048;-54
2021/07/20 05:21:03;;;;;;;18.45;6.30;;;;;;;;;;5036466;28;20153;-51
2021/07/20 05:23:31;;;;;;;16.67;5.53;;;;;;;;;;5034884;28;20044;-54
2021/07/20 05:25:59;;;;;;;15.18;5.63;;;;;;;;;;5034414;28;20090;-55
2021/07/20 05:28:36;;;;;;;14.25;5.57;;;;;;;;;;5034376;28;20037;-55
2021/07/20 05:31:04;;;;;;;17.70;5.50;;;;;;;;;;5031289;28;20034;-55
2021/07/20 05:33:32;;;;;;;13.07;5.15;;;;;;;;;;5024267;28;20041;-54
2021/07/20 05:35:59;;;;;;;16.07;5.60;;;;;;;;;;5018612;28;20045;-56
2021/07/20 05:38:27;;;;;;;12.63;5.40;;;;;;;;;;5023492;28;20037;-51
2021/07/20 05:40:56;;;;;;;10.75;4.93;;;;;;;;;;5018600;28;20061;-55
2021/07/20 05:43:23;;;;;;;14.85;5.13;;;;;;;;;;5023280;28;20050;-54
2021/07/20 05:45:50;;;;;;;13.35;5.25;;;;;;;;;;5042739;28;20030;-51
2021/07/20 05:48:23;;;;;;;13.57;5.40;;;;;;;;;;5024779;28;20044;-53
2021/07/20 05:50:51;;;;;;;11.00;4.65;;;;;;;;;;5020955;28;20033;-52
2021/07/20 05:53:18;;;;;;;16.70;4.63;;;;;;;;;;5037823;28;20037;-53
2021/07/20 05:55:46;;;;;;;14.00;4.50;;;;;;;;;;5016391;28;20052;-54
2021/07/20 05:58:15;;;;;;;10.30;4.38;;;;;;;;;;5013326;28;20099;-52
2021/07/20 06:00:42;;;;;;;10.40;4.50;;;;;;;;;;5016472;28;20423;-54
2021/07/20 06:03:12;;;;;;;14.77;5.65;;;;;;;;;;5035594;28;20078;-55
2021/07/20 06:05:40;;;;;;;15.50;6.60;;;;;;;;;;5001730;28;20045;-55
2021/07/20 06:08:17;;;;;;;12.02;5.13;;;;;;;;;;5003603;28;20051;-56
2021/07/20 06:10:45;;;;;;;12.65;4.53;;;;;;;;;;4997043;28;20031;-56
2021/07/20 06:13:12;;;;;;;10.52;4.88;;;;;;;;;;5017178;28;20116;-58
2021/07/20 06:15:40;;;;;;;11.35;4.65;;;;;;;;;;5022959;28;20062;-53
2021/07/20 06:18:15;;;;;;;9.18;4.05;;;;;;;;;;5000675;28;20041;-54
2021/07/20 06:20:44;;;;;;;12.18;4.55;;;;;;;;;;5005691;28;20046;-51
2021/07/20 06:23:12;;;;;;;9.60;3.80;;;;;;;;;;5018595;28;20042;-51
2021/07/20 06:25:40;;;;;;;7.88;3.47;;;;;;;;;;5021862;28;20053;-55
2021/07/20 06:28:13;;;;;;;13.25;4.25;;;;;;;;;;5005017;28;20038;-55
2021/07/20 06:30:42;;;;;;;11.13;4.35;;;;;;;;;;4986228;28;20063;-52
2021/07/20 06:33:09;;;;;;;14.93;4.80;;;;;;;;;;5008875;28;20096;-55
2021/07/20 06:35:35;;;;;;;11.27;3.80;;;;;;;;;;5020505;28;20034;-53
2021/07/20 06:38:02;;;;;;;14.13;3.75;;;;;;;;;;4999314;28;20043;-57
2021/07/20 06:40:29;;;;;;;11.32;4.55;;;;;;;;;;5002522;28;20030;-56
2021/07/20 06:42:56;;;;;;;11.63;4.57;;;;;;;;;;5000450;28;20038;-56
2021/07/20 06:45:23;;;;;;;10.05;4.13;;;;;;;;;;4988217;28;20043;-56
2021/07/20 06:47:52;;;;;;;10.88;4.03;;;;;;;;;;4984062;28;20038;-54
2021/07/20 06:50:19;;;;;;;8.15;3.53;;;;;;;;;;4985167;28;20031;-51
2021/07/20 06:52:48;;;;;;;11.27;4.20;;;;;;;;;;5001614;28;20050;-52
2021/07/20 06:55:15;;;;;;;10.57;3.90;;;;;;;;;;5013353;28;20034;-53
2021/07/20 06:57:48;;;;;;;7.72;3.50;;;;;;;;;;4995370;28;20046;-56
2021/07/20 07:00:17;;;;;;;11.80;3.55;;;;;;;;;;4984641;28;20042;-55
2021/07/20 07:02:45;;;;;;;18.20;3.97;;;;;;;;;;5002288;28;20034;-55
2021/07/20 07:05:15;;;;;;;9.83;4.00;;;;;;;;;;5022611;28;20052;-53
2021/07/20 07:07:43;;;;;;;9.75;3.75;;;;;;;;;;5025737;28;20052;-53
2021/07/20 07:10:10;;;;;;;13.82;3.97;;;;;;;;;;5031148;28;20049;-54
2021/07/20 07:12:38;;;;;;;9.90;3.85;;;;;;;;;;5009014;28;20038;-55
2021/07/20 07:15:09;;;;;;;10.25;3.83;;;;;;;;;;5021885;28;20498;-56
2021/07/20 07:17:51;;;;;;;12.70;3.90;;;;;;;;;;5031168;28;20048;-50
2021/07/20 07:20:21;;;;;;;10.52;4.00;;;;;;;;;;5010248;28;20048;-55
2021/07/20 07:22:48;;;;;;;12.93;3.85;;;;;;;;;;5032985;28;20613;-55
2021/07/20 07:25:16;;;;;;;10.73;4.10;;;;;;;;;;5024651;28;20053;-54
2021/07/20 07:27:44;;;;;;;;;;;;;;;;;;5044675;28;20069;-54
2021/07/20 07:30:11;;;;;;;10.52;3.40;;;;;;;;;;5038234;28;19917;-56
2021/07/20 07:32:38;;;;;;;9.55;4.25;;;;;;;;;;5043687;28;20487;-56
2021/07/20 07:35:05;;;;;;;10.65;3.72;;;;;;;;;;5023131;28;20056;-55
2021/07/20 07:37:36;;;;;;;10.93;4.13;;;;;;;;;;5043893;28;20118;-53
2021/07/20 07:40:05;;;;;;;8.10;3.95;;;;;;;;;;5040962;28;20118;-55
2021/07/20 07:42:31;;;;;;;;;;;;;;;;;;5008099;28;20054;-56
2021/07/20 07:44:58;;;;;;;10.35;4.28;;;;;;;;;;5022614;28;19944;-54
2021/07/20 07:47:29;;;;;;;9.80;4.20;;;;;;;;;;5041431;28;20033;-57
2021/07/20 07:49:57;;;;;;;9.48;3.97;;;;;;;;;;5043827;28;20052;-56
2021/07/20 07:52:24;;;;;;;10.30;4.60;;;;;;;;;;5020311;28;20046;-54
2021/07/20 07:54:52;;;;;;;12.57;4.38;;;;;;;;;;5007879;28;20057;-55
2021/07/20 07:57:20;;;;;;;10.25;4.57;;;;;;;;;;5018033;28;20126;-57
2021/07/20 07:59:47;;;;;;;13.10;4.35;;;;;;;;;;5042722;28;20090;-53
2021/07/20 08:02:15;;;;;;;12.93;4.80;;;;;;;;;;5038527;28;20049;-53
2021/07/20 08:04:43;;;;;;;9.85;4.82;;;;;;;;;;5043312;28;20053;-54
2021/07/20 08:07:17;;;;;;;8.48;3.83;;;;;;;;;;5040260;28;20033;-54
2021/07/20 08:09:44;;;;;;;9.30;4.20;;;;;;;;;;5037886;28;20056;-57
2021/07/20 08:12:13;;;;;;;10.27;4.60;;;;;;;;;;5027264;28;20041;-58
2021/07/20 08:14:40;;;;;;;10.85;4.57;;;;;;;;;;5042349;28;20049;-56
2021/07/20 08:17:08;;;;;;;8.80;4.00;;;;;;;;;;5040647;28;20033;-57
2021/07/20 08:19:37;;;;;;;10.32;4.25;;;;;;;;;;5026624;28;20029;-55
2021/07/20 08:22:07;;;;;;;;;;;;;;;;;;5038791;28;20042;-57
2021/07/20 08:24:35;;;;;;;10.43;4.18;;;;;;;;;;5021917;28;19909;-57
2021/07/20 08:27:04;;;;;;;11.32;4.43;;;;;;;;;;5027294;28;20037;-52
2021/07/20 08:29:34;;;;;;;11.10;4.15;;;;;;;;;;5023528;28;20123;-57
2021/07/20 08:32:04;;;;;;;12.93;4.97;;;;;;;;;;5023500;28;20152;-55
2021/07/20 08:34:33;;;;;;;13.02;5.40;;;;;;;;;;5027839;28;20044;-58
2021/07/20 08:37:00;;;;;;;9.02;4.25;;;;;;;;;;5045357;28;20033;-55
2021/07/20 08:39:27;;;;;;;12.45;5.30;;;;;;;;;;5027296;28;20026;-54
2021/07/20 08:42:01;;;;;;;9.20;3.92;;;;;;;;;;5026707;28;20040;-53
2021/07/20 08:44:38;;;;;;;10.80;3.67;;;;;;;;;;5034224;28;20033;-57
2021/07/20 08:47:13;;;;;;;10.07;4.45;;;;;;;;;;5026587;28;20048;-56
2021/07/20 08:49:55;;;;;;;11.23;5.18;;;;;;;;;;5040842;28;20038;-56
2021/07/20 08:52:27;;;;;;;11.23;4.97;;;;;;;;;;5050715;28;20044;-56
2021/07/20 08:54:59;;;;;;;11.55;5.18;;;;;;;;;;5044600;28;20051;-54
2021/07/20 08:57:28;;;;;;;9.32;4.20;;;;;;;;;;5045190;28;20118;-55
2021/07/20 09:00:00;;;;;;;9.18;4.25;;;;;;;;;;5014884;28;20041;-54
2021/07/20 09:02:34;;;;;;;8.75;3.88;;;;;;;;;;5025761;28;20055;-56
2021/07/20 09:05:05;;;;;;;14.13;4.32;;;;;;;;;;5013468;28;20042;-55
2021/07/20 09:07:37;;;;;;;11.57;4.80;;;;;;;;;;5025797;28;20054;-53
2021/07/20 09:10:08;;;;;;;16.52;4.47;;;;;;;;;;5030282;28;20119;-57
2021/07/20 09:12:39;;;;;;;10.20;4.70;;;;;;;;;;5026154;28;20042;-55
2021/07/20 09:15:09;;;;;;;10.00;4.50;;;;;;;;;;4999763;28;20037;-56
2021/07/20 09:17:38;;;;;;;11.52;4.65;;;;;;;;;;5008987;28;20048;-58
2021/07/20 09:20:06;;;;;;;10.07;4.55;;;;;;;;;;5023458;28;20069;-56
2021/07/20 09:22:35;;;;;;;12.03;4.53;;;;;;;;;;5045597;28;20145;-58
2021/07/20 09:25:05;;;;;;;14.20;4.47;;;;;;;;;;5023316;28;20130;-56
2021/07/20 09:27:35;;;;;;;13.20;5.60;;;;;;;;;;5046012;28;20037;-57
2021/07/20 09:30:03;;;;;;;9.48;4.00;;;;;;;;;;5021731;28;20052;-57
2021/07/20 09:32:34;;;;;;;9.32;4.03;;;;;;;;;;5043038;28;20056;-58
2021/07/20 09:35:05;;;;;;;11.85;4.47;;;;;;;;;;5022878;28;20026;-57
2021/07/20 09:37:36;;;;;;;10.95;4.70;;;;;;;;;;5025802;28;20044;-53
2021/07/20 09:40:13;;;;;;;9.98;4.20;;;;;;;;;;5044337;28;20084;-57
2021/07/20 09:42:43;;;;;;;10.32;4.00;;;;;;;;;;5008283;28;20042;-58
2021/07/20 09:45:11;;;;;;;11.75;4.50;;;;;;;;;;5008115;28;20052;-56
2021/07/20 09:47:45;;;;;;;10.90;4.70;;;;;;;;;;5021495;28;20041;-58
2021/07/20 09:50:14;;;;;;;9.85;4.32;;;;;;;;;;5026618;28;20049;-57
2021/07/20 09:52:58;;;;;;;10.32;4.60;;;;;;;;;;5008087;28;20045;-58
2021/07/20 09:55:31;;;;;;;15.10;6.07;;;;;;;;;;5014871;28;20049;-57
2021/07/20 09:58:01;;;;;;;10.80;4.90;;;;;;;;;;5036989;28;20123;-58
2021/07/20 10:00:33;;;;;;;9.55;4.65;;;;;;;;;;5008882;28;20037;-53
2021/07/20 10:03:09;;;;;;;11.73;4.20;;;;;;;;;;5020930;28;20025;-58
2021/07/20 10:05:39;;;;;;;12.85;4.32;;;;;;;;;;5043288;28;20061;-57
2021/07/20 10:08:15;;;;;;;12.77;5.07;;;;;;;;;;5042868;28;20049;-58
2021/07/20 10:10:44;;;;;;;9.90;4.78;;;;;;;;;;5031148;28;20052;-58
2021/07/20 10:13:15;;;;;;;13.68;4.38;;;;;;;;;;5020004;28;20057;-57
2021/07/20 10:15:52;;;;;;;11.40;4.28;;;;;;;;;;5024362;28;20091;-58
2021/07/20 10:18:26;;;;;;;10.93;4.43;;;;;;;;;;5031736;28;20033;-58
2021/07/20 10:20:55;;;;;;;14.00;4.80;;;;;;;;;;5026075;28;20053;-58
2021/07/20 10:23:24;;;;;;;12.07;5.28;;;;;;;;;;5022303;28;20044;-59
2021/07/20 10:25:55;;;;;;;9.63;4.70;;;;;;;;;;5026446;28;20045;-58
2021/07/20 10:28:25;;;;;;;11.77;5.45;;;;;;;;;;5010556;28;20041;-58
2021/07/20 10:30:54;;;;;;;12.88;4.60;;;;;;;;;;5024360;28;20052;-57
2021/07/20 10:33:24;;;;;;;11.10;5.00;;;;;;;;;;5011615;28;20037;-57
2021/07/20 10:35:55;;;;;;;13.57;5.03;;;;;;;;;;5045119;28;20044;-58
2021/07/20 10:38:25;;;;;;;9.35;4.57;;;;;;;;;;5040064;28;20034;-58
2021/07/20 10:40:52;;;;;;;10.15;5.10;;;;;;;;;;5045626;28;20034;-57
2021/07/20 10:43:23;;;;;;;13.35;5.05;;;;;;;;;;5036848;28;20111;-56
2021/07/20 10:45:52;;;;;;;16.92;4.80;;;;;;;;;;5008166;28;20111;-57
2021/07/20 10:48:20;;;;;;;9.15;4.65;;;;;;;;;;5007241;28;20057;-58
2021/07/20 10:50:52;;;;;;;10.95;4.63;;;;;;;;;;5044786;28;20037;-58
2021/07/20 10:53:23;;;;;;;10.57;4.50;;;;;;;;;;5023835;28;20167;-54
2021/07/20 10:55:54;;;;;;;9.45;4.88;;;;;;;;;;5023474;28;20058;-58
2021/07/20 10:58:25;;;;;;;10.35;4.85;;;;;;;;;;5039304;28;20053;-56
2021/07/20 11:00:56;;;;;;;12.25;5.07;;;;;;;;;;5006189;28;20025;-58
2021/07/20 11:03:26;;;;;;;11.13;5.05;;;;;;;;;;5021479;28;20061;-51
2021/07/20 11:05:53;;;;;;;10.00;4.78;;;;;;;;;;5013972;28;20049;-53
2021/07/20 11:08:22;;;;;;;12.45;4.50;;;;;;;;;;5006838;28;20038;-58
2021/07/20 11:10:50;;;;;;;12.15;4.88;;;;;;;;;;5000945;28;20038;-58
2021/07/20 11:13:18;;;;;;;11.73;5.33;;;;;;;;;;5005998;28;20041;-57
2021/07/20 11:15:51;;;;;;;11.82;4.93;;;;;;;;;;5020315;28;20033;-56
2021/07/20 11:18:20;;;;;;;10.45;5.28;;;;;;;;;;5024498;28;20040;-58
2021/07/20 11:20:46;;;;;;;11.52;5.57;;;;;;;;;;5024644;28;20030;-54
2021/07/20 11:23:15;;;;;;;9.68;5.10;;;;;;;;;;5004459;28;20030;-56
2021/07/20 11:25:41;;;;;;;;;;;;;;;;;;5010366;28;20048;-57
2021/07/20 11:28:09;;;;;;;13.52;4.60;;;;;;;;;;5037299;28;19913;-56
2021/07/20 11:30:35;;;;;;;;;;;;;;;;;;5029412;28;20120;-56
2021/07/20 11:33:05;;;;;;;12.48;4.65;;;;;;;;;;5003011;28;19929;-58
2021/07/20 11:35:34;;;;;;;11.90;4.85;;;;;;;;;;5022389;28;20049;-57
2021/07/20 11:38:04;;;;;;;9.70;4.78;;;;;;;;;;5041008;28;20030;-55
2021/07/20 11:40:34;;;;;;;12.18;5.43;;;;;;;;;;5018292;28;20034;-56
2021/07/20 11:43:04;;;;;;;12.77;4.43;;;;;;;;;;5040508;28;20119;-58
2021/07/20 11:45:34;;;;;;;8.57;4.35;;;;;;;;;;5034270;28;20058;-57
2021/07/20 11:48:06;;;;;;;9.60;4.38;;;;;;;;;;5004983;28;20038;-58
2021/07/20 11:50:36;;;;;;;10.50;5.07;;;;;;;;;;5002519;28;20041;-57
2021/07/20 11:53:06;;;;;;;11.93;5.00;;;;;;;;;;5041099;28;20048;-58
2021/07/20 11:55:38;;;;;;;10.13;4.72;;;;;;;;;;5040164;28;20045;-58
2021/07/20 11:58:22;;;;;;;11.77;5.32;;;;;;;;;;5020504;28;20060;-57
2021/07/20 12:01:06;;;;;;;11.30;4.90;;;;;;;;;;5019188;28;20045;-56
2021/07/20 12:03:41;;;;;;;12.27;4.88;;;;;;;;;;4994781;28;20054;-58
2021/07/20 12:06:25;;;;;;;15.13;6.40;;;;;;;;;;5009594;28;20287;-58
2021/07/20 12:09:09;;;;;;;9.60;4.68;;;;;;;;;;5033343;28;20034;-58
2021/07/20 12:11:37;;;;;;;10.40;4.50;;;;;;;;;;5021931;28;20034;-56
2021/07/20 12:14:05;;;;;;;10.05;4.78;;;;;;;;;;5039504;28;20083;-58
2021/07/20 12:16:32;;;;;;;9.30;4.82;;;;;;;;;;5044129;28;20038;-57
2021/07/20 12:19:04;;;;;;;13.23;5.88;;;;;;;;;;5022933;28;20056;-56
2021/07/20 12:21:34;;;;;;;12.25;5.63;;;;;;;;;;5029442;28;20037;-58
2021/07/20 12:24:05;;;;;;;11.90;5.25;;;;;;;;;;5023319;28;20080;-56
2021/07/20 12:26:31;;;;;;;10.30;5.53;;;;;;;;;;5007114;28;20074;-58
2021/07/20 12:28:58;;;;;;;13.85;5.22;;;;;;;;;;5005301;28;20057;-58
2021/07/20 12:31:28;;;;;;;11.30;4.95;;;;;;;;;;5023071;28;20157;-58
2021/07/20 12:33:55;;;;;;;11.15;4.93;;;;;;;;;;5020756;28;20089;-56
2021/07/20 12:36:23;;;;;;;14.65;5.78;;;;;;;;;;5024064;28;20038;-57
2021/07/20 12:38:55;;;;;;;;;;;;;;;;;;5019168;28;20050;-57
2021/07/20 12:41:21;;;;;;;11.25;4.63;;;;;;;;;;5042106;28;19917;-59
2021/07/20 12:43:48;;;;;;;12.20;5.22;;;;;;;;;;5027800;28;20058;-57
2021/07/20 12:46:16;;;;;;;11.00;4.82;;;;;;;;;;5022193;28;20030;-56
2021/07/20 12:48:49;;;;;;;10.88;5.38;;;;;;;;;;5009387;28;20037;-57
2021/07/20 12:51:16;;;;;;;12.18;5.45;;;;;;;;;;5043768;28;20029;-58
2021/07/20 12:53:45;;;;;;;14.70;5.85;;;;;;;;;;5039581;28;20034;-56
2021/07/20 12:56:12;;;;;;;12.73;5.47;;;;;;;;;;5024471;28;20042;-59
2021/07/20 12:58:51;;;;;;;11.85;5.82;;;;;;;;;;5022328;28;20127;-57
2021/07/20 13:01:20;;;;;;;14.55;5.70;;;;;;;;;;5025062;28;20033;-57
2021/07/20 13:03:47;;;;;;;11.45;5.57;;;;;;;;;;5033744;28;20052;-56
2021/07/20 13:06:15;;;;;;;11.13;5.20;;;;;;;;;;5029889;28;20038;-57
2021/07/20 13:08:42;;;;;;;11.82;5.75;;;;;;;;;;5030473;28;20029;-57
2021/07/20 13:11:10;;;;;;;12.38;5.50;;;;;;;;;;5026367;28;20064;-56
2021/07/20 13:13:37;;;;;;;13.48;5.80;;;;;;;;;;5043062;28;20061;-53
2021/07/20 13:16:04;;;;;;;12.18;5.72;;;;;;;;;;5037522;28;20034;-56
2021/07/20 13:18:37;;;;;;;10.68;5.60;;;;;;;;;;5022412;28;20152;-57
2021/07/20 13:21:04;;;;;;;10.60;5.18;;;;;;;;;;5029277;28;20032;-58
2021/07/20 13:23:33;;;;;;;12.18;5.47;;;;;;;;;;5045448;28;20072;-57
2021/07/20 13:26:00;;;;;;;13.45;5.80;;;;;;;;;;5042604;28;20051;-54
2021/07/20 13:28:35;;;;;;;12.15;5.72;;;;;;;;;;5031010;28;20064;-56
2021/07/20 13:31:02;;;;;;;13.20;5.60;;;;;;;;;;5040003;28;20069;-57
2021/07/20 13:33:28;;;;;;;15.73;6.70;;;;;;;;;;5044964;28;20049;-56
2021/07/20 13:35:56;;;;;;;11.68;5.97;;;;;;;;;;5041729;28;20037;-58
2021/07/20 13:38:38;;;;;;;15.93;6.00;;;;;;;;;;5030322;28;20038;-58
2021/07/20 13:41:05;;;;;;;14.48;5.68;;;;;;;;;;5019734;28;20025;-56
2021/07/20 13:43:32;;;;;;;12.60;6.07;;;;;;;;;;5043683;28;20033;-59
2021/07/20 13:46:00;;;;;;;13.07;6.05;;;;;;;;;;5039815;28;20088;-58
2021/07/20 13:48:41;;;;;;;14.27;6.22;;;;;;;;;;5026846;28;20038;-58
2021/07/20 13:51:08;;;;;;;13.63;5.82;;;;;;;;;;5037571;28;20034;-58
2021/07/20 13:53:37;;;;;;;15.07;6.60;;;;;;;;;;5026906;28;20053;-57
2021/07/20 13:56:13;;;;;;;16.73;6.47;;;;;;;;;;5023672;28;20046;-58
2021/07/20 13:58:49;;;;;;;13.93;6.45;;;;;;;;;;5025679;28;20090;-58
2021/07/20 14:01:17;;;;;;;13.52;6.38;;;;;;;;;;5025590;28;20040;-58
2021/07/20 14:03:44;;;;;;;17.15;6.70;;;;;;;;;;5010911;28;20046;-58
2021/07/20 14:06:14;;;;;;;12.50;6.38;;;;;;;;;;5019764;28;20054;-57
2021/07/20 14:08:53;;;;;;;12.45;6.25;;;;;;;;;;5003482;28;20035;-56
2021/07/20 14:11:20;;;;;;;12.07;5.75;;;;;;;;;;5018568;28;20054;-58
2021/07/20 14:13:47;;;;;;;13.32;5.88;;;;;;;;;;4982798;28;20128;-56
2021/07/20 14:16:14;;;;;;;15.13;6.18;;;;;;;;;;5003876;28;20093;-57
2021/07/20 14:18:44;;;;;;;12.40;5.80;;;;;;;;;;5000025;28;20039;-54
2021/07/20 14:21:23;;;;;;;11.40;6.43;;;;;;;;;;4988122;28;20034;-58
2021/07/20 14:23:51;;;;;;;12.77;6.40;;;;;;;;;;4980225;28;20085;-57
2021/07/20 14:26:18;;;;;;;15.35;5.97;;;;;;;;;;5001519;28;20124;-57
2021/07/20 14:28:46;;;;;;;12.43;5.95;;;;;;;;;;4998486;28;20030;-58
2021/07/20 14:31:15;;;;;;;14.07;6.15;;;;;;;;;;5004425;28;20041;-56
2021/07/20 14:33:42;;;;;;;13.13;6.63;;;;;;;;;;5017036;28;20058;-59
2021/07/20 14:36:37;;;;;;;14.35;6.03;;;;;;;;;;5021660;28;20054;-57
2021/07/20 14:39:05;;;;;;;12.95;5.95;;;;;;;;;;4999413;28;20119;-57
2021/07/20 14:41:31;;;;;;;14.25;6.32;;;;;;;;;;5022567;28;20026;-57
2021/07/20 14:43:59;;;;;;;16.25;6.40;;;;;;;;;;5009543;28;20049;-57
2021/07/20 14:46:39;;;;;;;11.15;5.70;;;;;;;;;;5003700;28;20095;-58
2021/07/20 14:49:29;;;;;;;10.65;5.47;;;;;;;;;;4991551;28;20049;-58
2021/07/20 14:51:57;;;;;;;10.55;5.65;;;;;;;;;;4981869;28;20054;-57